^^
Meteo Knjazevac Station Historical Data
Daily Summary for February 10, 2021 Units:  Both    English   Metric
Daily Weekly Monthly Yearly Custom
  High: Low: Average:
Temperature: 37.2 °F /  2.9 °C 33.8 °F /  1 °C 34.9 °F /  1.6 °C
Dew Point: 37 °F /  2.8 °C 33.5 °F /  0.8 °C 34.7 °F /  1.5 °C
Humidity: 99% 99% 99%
Wind Speed: 3mph /  4.8km/h - 0.9mph /  1.4km/h
Wind Gust: 8mph /  12.9km/h - -
Wind- - ESE
Pressure: 29.80 in /  1009 hPa 29.73 in /  1006.7 hPa -
Precipitation: 0.16 in /  4.06 mm    
Historical Graphs
 
 
Tabular Data for February 10, 2021
Time Temperature Dew Point Pressure Wind Wind Speed Wind Gust Humidity Rainfall Rate (Hourly) solar Conditions
00:00 33.8 °F /  1 °C 33.5 °F /  0.8 °C 29.80in /  1009hPa North 2mph /  3.2km/h 6mph /  9.7km/h 99% 0.00in /  0mm 0 W/m2
00:10 34 °F /  1.1 °C 33.7 °F /  0.9 °C 29.80in /  1009hPa NNE 2mph /  3.2km/h 5mph /  8km/h 99% 0.00in /  0mm 0 W/m2
00:20 33.9 °F /  1.1 °C 33.6 °F /  0.9 °C 29.80in /  1009hPa Calm   5mph /  8km/h 99% 0.00in /  0mm 0 W/m2
00:30 33.8 °F /  1 °C 33.5 °F /  0.8 °C 29.80in /  1009hPa North 1mph /  1.6km/h 5mph /  8km/h 99% 0.00in /  0mm 0 W/m2
00:40 34 °F /  1.1 °C 33.7 °F /  0.9 °C 29.79in /  1008.7hPa NNE 2mph /  3.2km/h 4mph /  6.4km/h 99% 0.00in /  0mm 0 W/m2
00:50 33.8 °F /  1 °C 33.5 °F /  0.8 °C 29.80in /  1009hPa North 1mph /  1.6km/h 4mph /  6.4km/h 99% 0.00in /  0mm 0 W/m2
01:00 33.8 °F /  1 °C 33.5 °F /  0.8 °C 29.79in /  1008.7hPa North 1mph /  1.6km/h 4mph /  6.4km/h 99% 0.00in /  0mm 0 W/m2
01:10 33.8 °F /  1 °C 33.5 °F /  0.8 °C 29.79in /  1008.7hPa Calm   3mph /  4.8km/h 99% 0.00in /  0mm 0 W/m2
01:20 34 °F /  1.1 °C 33.7 °F /  0.9 °C 29.79in /  1008.7hPa North 1mph /  1.6km/h 2mph /  3.2km/h 99% 0.00in /  0mm 0 W/m2
01:30 34 °F /  1.1 °C 33.7 °F /  0.9 °C 29.79in /  1008.7hPa NNE 2mph /  3.2km/h 3mph /  4.8km/h 99% 0.00in /  0mm 0 W/m2
01:40 34 °F /  1.1 °C 33.7 °F /  0.9 °C 29.80in /  1009hPa Calm   3mph /  4.8km/h 99% 0.01in /  0.25mm 0 W/m2
01:50 34 °F /  1.1 °C 33.7 °F /  0.9 °C 29.80in /  1009hPa Calm   2mph /  3.2km/h 99% 0.02in /  0.51mm 0 W/m2
02:00 34 °F /  1.1 °C 33.7 °F /  0.9 °C 29.79in /  1008.7hPa NE 2mph /  3.2km/h 4mph /  6.4km/h 99% 0.02in /  0.51mm 0 W/m2
02:10 34 °F /  1.1 °C 33.7 °F /  0.9 °C 29.80in /  1009hPa East 1mph /  1.6km/h 8mph /  12.9km/h 99% 0.01in /  0.25mm 0 W/m2
02:20 34 °F /  1.1 °C 33.7 °F /  0.9 °C 29.80in /  1009hPa NNE 2mph /  3.2km/h 5mph /  8km/h 99% 0.00in /  0mm 0 W/m2
02:30 34 °F /  1.1 °C 33.7 °F /  0.9 °C 29.80in /  1009hPa NW 1mph /  1.6km/h 3mph /  4.8km/h 99% 0.00in /  0mm 0 W/m2
02:40 34 °F /  1.1 °C 33.7 °F /  0.9 °C 29.80in /  1009hPa NNW 1mph /  1.6km/h 3mph /  4.8km/h 99% 0.01in /  0.25mm 0 W/m2
02:50 34 °F /  1.1 °C 33.7 °F /  0.9 °C 29.79in /  1008.7hPa North 2mph /  3.2km/h 4mph /  6.4km/h 99% 0.01in /  0.25mm 0 W/m2
03:00 34.2 °F /  1.2 °C 33.9 °F /  1.1 °C 29.79in /  1008.7hPa North 2mph /  3.2km/h 4mph /  6.4km/h 99% 0.00in /  0mm 0 W/m2
03:10 34.2 °F /  1.2 °C 33.9 °F /  1.1 °C 29.78in /  1008.4hPa NNE 1mph /  1.6km/h 3mph /  4.8km/h 99% 0.01in /  0.25mm 0 W/m2
03:20 34.2 °F /  1.2 °C 33.9 °F /  1.1 °C 29.78in /  1008.4hPa Calm   2mph /  3.2km/h 99% 0.01in /  0.25mm 0 W/m2
03:30 34.2 °F /  1.2 °C 33.9 °F /  1.1 °C 29.78in /  1008.4hPa Calm   4mph /  6.4km/h 99% 0.01in /  0.25mm 0 W/m2
03:40 34.2 °F /  1.2 °C 33.9 °F /  1.1 °C 29.78in /  1008.4hPa Calm   3mph /  4.8km/h 99% 0.01in /  0.25mm 0 W/m2
03:50 34.2 °F /  1.2 °C 33.9 °F /  1.1 °C 29.77in /  1008hPa North 1mph /  1.6km/h 5mph /  8km/h 99% 0.00in /  0mm 0 W/m2
04:00 34.2 °F /  1.2 °C 33.9 °F /  1.1 °C 29.78in /  1008.4hPa WNW 1mph /  1.6km/h 4mph /  6.4km/h 99% 0.00in /  0mm 0 W/m2
04:10 34.2 °F /  1.2 °C 33.9 °F /  1.1 °C 29.78in /  1008.4hPa Calm   5mph /  8km/h 99% 0.00in /  0mm 0 W/m2
04:20 34.2 °F /  1.2 °C 33.9 °F /  1.1 °C 29.78in /  1008.4hPa North 2mph /  3.2km/h 4mph /  6.4km/h 99% 0.00in /  0mm 0 W/m2
04:30 34.3 °F /  1.3 °C 34 °F /  1.1 °C 29.77in /  1008hPa NNE 1mph /  1.6km/h 5mph /  8km/h 99% 0.00in /  0mm 0 W/m2
04:40 34.3 °F /  1.3 °C 34.1 °F /  1.2 °C 29.77in /  1008hPa WNW 2mph /  3.2km/h 3mph /  4.8km/h 99% 0.00in /  0mm 0 W/m2
04:50 34.2 °F /  1.2 °C 33.9 °F /  1.1 °C 29.77in /  1008hPa North 1mph /  1.6km/h 4mph /  6.4km/h 99% 0.00in /  0mm 0 W/m2
05:00 34.3 °F /  1.3 °C 34 °F /  1.1 °C 29.76in /  1007.7hPa Calm   7mph /  11.3km/h 99% 0.00in /  0mm 0 W/m2
05:10 34.3 °F /  1.3 °C 34 °F /  1.1 °C 29.77in /  1008hPa Calm   2mph /  3.2km/h 99% 0.00in /  0mm 0 W/m2
05:20 34.2 °F /  1.2 °C 33.9 °F /  1.1 °C 29.76in /  1007.7hPa Calm   3mph /  4.8km/h 99% 0.00in /  0mm 0 W/m2
05:30 34.3 °F /  1.3 °C 34 °F /  1.1 °C 29.77in /  1008hPa NE 1mph /  1.6km/h 3mph /  4.8km/h 99% 0.00in /  0mm 0 W/m2
05:40 34.2 °F /  1.2 °C 33.9 °F /  1.1 °C 29.77in /  1008hPa NE 1mph /  1.6km/h 3mph /  4.8km/h 99% 0.00in /  0mm 0 W/m2
05:50 34.2 °F /  1.2 °C 33.9 °F /  1.1 °C 29.77in /  1008hPa Calm   2mph /  3.2km/h 99% 0.00in /  0mm 0 W/m2
06:00 34.2 °F /  1.2 °C 33.9 °F /  1.1 °C 29.76in /  1007.7hPa Calm   2mph /  3.2km/h 99% 0.00in /  0mm 0 W/m2
06:10 34.2 °F /  1.2 °C 33.9 °F /  1.1 °C 29.76in /  1007.7hPa Calm   4mph /  6.4km/h 99% 0.00in /  0mm 0 W/m2
06:20 34.2 °F /  1.2 °C 33.9 °F /  1.1 °C 29.76in /  1007.7hPa North 1mph /  1.6km/h 3mph /  4.8km/h 99% 0.00in /  0mm 0 W/m2
06:30 34.2 °F /  1.2 °C 33.9 °F /  1.1 °C 29.76in /  1007.7hPa North 1mph /  1.6km/h 2mph /  3.2km/h 99% 0.00in /  0mm 0 W/m2
06:40 34.2 °F /  1.2 °C 33.9 °F /  1.1 °C 29.77in /  1008hPa NNW 1mph /  1.6km/h 2mph /  3.2km/h 99% 0.00in /  0mm 0 W/m2
06:50 34.2 °F /  1.2 °C 33.9 °F /  1.1 °C 29.77in /  1008hPa Calm   2mph /  3.2km/h 99% 0.00in /  0mm 0 W/m2
07:00 34.2 °F /  1.2 °C 33.9 °F /  1.1 °C 29.76in /  1007.7hPa North 1mph /  1.6km/h 3mph /  4.8km/h 99% 0.00in /  0mm 1 W/m2
07:10 34.2 °F /  1.2 °C 33.9 °F /  1.1 °C 29.76in /  1007.7hPa NNE 1mph /  1.6km/h 3mph /  4.8km/h 99% 0.00in /  0mm 2 W/m2
07:20 34.3 °F /  1.3 °C 34 °F /  1.1 °C 29.77in /  1008hPa NNE 1mph /  1.6km/h 3mph /  4.8km/h 99% 0.01in /  0.25mm 4 W/m2
07:30 34.3 °F /  1.3 °C 34.1 °F /  1.2 °C 29.77in /  1008hPa Calm   3mph /  4.8km/h 99% 0.01in /  0.25mm 7 W/m2
07:40 34.3 °F /  1.3 °C 34.1 °F /  1.2 °C 29.77in /  1008hPa North 1mph /  1.6km/h 2mph /  3.2km/h 99% 0.00in /  0mm 12 W/m2
07:50 34.3 °F /  1.3 °C 34.1 °F /  1.2 °C 29.76in /  1007.7hPa NNE 1mph /  1.6km/h 2mph /  3.2km/h 99% 0.00in /  0mm 19 W/m2
08:00 34.5 °F /  1.4 °C 34.3 °F /  1.3 °C 29.77in /  1008hPa Calm   2mph /  3.2km/h 99% 0.00in /  0mm 34 W/m2
08:10 34.5 °F /  1.4 °C 34.3 °F /  1.3 °C 29.76in /  1007.7hPa North 1mph /  1.6km/h 4mph /  6.4km/h 99% 0.00in /  0mm 46 W/m2
08:20 34.5 °F /  1.4 °C 34.3 °F /  1.3 °C 29.77in /  1008hPa NNE 2mph /  3.2km/h 3mph /  4.8km/h 99% 0.00in /  0mm 45 W/m2
08:30 34.7 °F /  1.5 °C 34.4 °F /  1.3 °C 29.77in /  1008hPa NNE 1mph /  1.6km/h 3mph /  4.8km/h 99% 0.00in /  0mm 50 W/m2
08:40 34.7 °F /  1.5 °C 34.4 °F /  1.3 °C 29.77in /  1008hPa Calm   4mph /  6.4km/h 99% 0.00in /  0mm 51 W/m2
08:50 34.7 °F /  1.5 °C 34.4 °F /  1.3 °C 29.77in /  1008hPa North 1mph /  1.6km/h 3mph /  4.8km/h 99% 0.00in /  0mm 52 W/m2
09:00 34.9 °F /  1.6 °C 34.6 °F /  1.4 °C 29.77in /  1008hPa NNE 1mph /  1.6km/h 3mph /  4.8km/h 99% 0.00in /  0mm 54 W/m2
09:10 35.1 °F /  1.7 °C 34.8 °F /  1.6 °C 29.76in /  1007.7hPa NNE 1mph /  1.6km/h 5mph /  8km/h 99% 0.00in /  0mm 83 W/m2
09:20 35.2 °F /  1.8 °C 35 °F /  1.7 °C 29.76in /  1007.7hPa NE 3mph /  4.8km/h 6mph /  9.7km/h 99% 0.00in /  0mm 102 W/m2
09:30 35.4 °F /  1.9 °C 35.2 °F /  1.8 °C 29.77in /  1008hPa NNW 1mph /  1.6km/h 2mph /  3.2km/h 99% 0.00in /  0mm 57 W/m2
09:40 35.4 °F /  1.9 °C 35.2 °F /  1.8 °C 29.76in /  1007.7hPa North 1mph /  1.6km/h 4mph /  6.4km/h 99% 0.00in /  0mm 75 W/m2
09:50 35.6 °F /  2 °C 35.3 °F /  1.8 °C 29.77in /  1008hPa Calm   2mph /  3.2km/h 99% 0.00in /  0mm 90 W/m2
10:00 35.8 °F /  2.1 °C 35.5 °F /  1.9 °C 29.77in /  1008hPa Calm   5mph /  8km/h 99% 0.00in /  0mm 62 W/m2
10:10 35.8 °F /  2.1 °C 35.5 °F /  1.9 °C 29.77in /  1008hPa North 1mph /  1.6km/h 5mph /  8km/h 99% 0.00in /  0mm 41 W/m2
10:20 35.8 °F /  2.1 °C 35.5 °F /  1.9 °C 29.77in /  1008hPa North 1mph /  1.6km/h 5mph /  8km/h 99% 0.00in /  0mm 40 W/m2
10:30 36 °F /  2.2 °C 35.7 °F /  2.1 °C 29.76in /  1007.7hPa North 2mph /  3.2km/h 5mph /  8km/h 99% 0.00in /  0mm 61 W/m2
10:40 36.1 °F /  2.3 °C 35.8 °F /  2.1 °C 29.76in /  1007.7hPa NNE 1mph /  1.6km/h 5mph /  8km/h 99% 0.00in /  0mm 86 W/m2
10:50 36.3 °F /  2.4 °C 36.1 °F /  2.3 °C 29.76in /  1007.7hPa NNE 2mph /  3.2km/h 5mph /  8km/h 99% 0.00in /  0mm 80 W/m2
11:00 36.3 °F /  2.4 °C 36.1 °F /  2.3 °C 29.75in /  1007.3hPa North 1mph /  1.6km/h 6mph /  9.7km/h 99% 0.00in /  0mm 78 W/m2
11:10 36.3 °F /  2.4 °C 36.1 °F /  2.3 °C 29.75in /  1007.3hPa North 1mph /  1.6km/h 4mph /  6.4km/h 99% 0.00in /  0mm 73 W/m2
11:20 36.4 °F /  2.4 °C 36.2 °F /  2.3 °C 29.75in /  1007.3hPa North 1mph /  1.6km/h 4mph /  6.4km/h 99% 0.00in /  0mm 58 W/m2
11:30 36.5 °F /  2.5 °C 36.2 °F /  2.3 °C 29.75in /  1007.3hPa Calm   3mph /  4.8km/h 99% 0.00in /  0mm 52 W/m2
11:40 36.5 °F /  2.5 °C 36.2 °F /  2.3 °C 29.74in /  1007hPa NNE 2mph /  3.2km/h 5mph /  8km/h 99% 0.00in /  0mm 72 W/m2
11:50 36.5 °F /  2.5 °C 36.2 °F /  2.3 °C 29.74in /  1007hPa NNE 1mph /  1.6km/h 5mph /  8km/h 99% 0.00in /  0mm 67 W/m2
12:00 36.5 °F /  2.5 °C 36.2 °F /  2.3 °C 29.74in /  1007hPa North 1mph /  1.6km/h 4mph /  6.4km/h 99% 0.00in /  0mm 72 W/m2
12:10 36.7 °F /  2.6 °C 36.4 °F /  2.4 °C 29.74in /  1007hPa North 1mph /  1.6km/h 4mph /  6.4km/h 99% 0.00in /  0mm 61 W/m2
12:20 36.7 °F /  2.6 °C 36.4 °F /  2.4 °C 29.74in /  1007hPa Calm   2mph /  3.2km/h 99% 0.00in /  0mm 104 W/m2
12:30 36.9 °F /  2.7 °C 36.6 °F /  2.6 °C 29.74in /  1007hPa North 1mph /  1.6km/h 4mph /  6.4km/h 99% 0.00in /  0mm 74 W/m2
12:40 37 °F /  2.8 °C 36.8 °F /  2.7 °C 29.74in /  1007hPa North 1mph /  1.6km/h 3mph /  4.8km/h 99% 0.00in /  0mm 46 W/m2
12:50 37 °F /  2.8 °C 36.8 °F /  2.7 °C 29.73in /  1006.7hPa NNE 1mph /  1.6km/h 3mph /  4.8km/h 99% 0.00in /  0mm 66 W/m2
13:00 37 °F /  2.8 °C 36.8 °F /  2.7 °C 29.73in /  1006.7hPa NNE 2mph /  3.2km/h 4mph /  6.4km/h 99% 0.00in /  0mm 61 W/m2
13:10 37 °F /  2.8 °C 36.8 °F /  2.7 °C 29.73in /  1006.7hPa Calm   3mph /  4.8km/h 99% 0.00in /  0mm 64 W/m2
13:20 37.2 °F /  2.9 °C 37 °F /  2.8 °C 29.73in /  1006.7hPa NNE 1mph /  1.6km/h 3mph /  4.8km/h 99% 0.00in /  0mm 46 W/m2
13:30 37.2 °F /  2.9 °C 37 °F /  2.8 °C 29.73in /  1006.7hPa Calm   3mph /  4.8km/h 99% 0.00in /  0mm 39 W/m2
13:40 37.2 °F /  2.9 °C 37 °F /  2.8 °C 29.73in /  1006.7hPa Calm   5mph /  8km/h 99% 0.00in /  0mm 58 W/m2
13:50 37.2 °F /  2.9 °C 37 °F /  2.8 °C 29.73in /  1006.7hPa North 1mph /  1.6km/h 3mph /  4.8km/h 99% 0.00in /  0mm 62 W/m2
Knjazevac, Serbia
Compliments of Weather Underground - 2 mb